Flight Track Log - Related Links

Times and Time Zones

All times are in EDT time to prevent confusion due to time zone crossing. See the AWE1262 flight status page for this flight to view local times or setup timezone preferences in your user account.

Time Position Orientation Groundspeed Altitude Reporting Facility
EDT Latitude Longitude Course Direction KTS MPH feet Rate Location/Type
Thu 10:04:50 PM 39.8667 -75.2667 37° Northeast 154 177 800  Level Philadelphia TRACON
Thu 10:05:32 PM 39.8500 -75.3000 237° Southwest 156 180 2,000 2,375 Climbing Philadelphia TRACON
Thu 10:06:26 PM 39.8167 -75.3667 237° Southwest 214 246 4,600 2,789 Climbing Philadelphia TRACON
Thu 10:07:00 PM 39.8072 -74.8191 105° East  Level FlightAware Approximate
Thu 10:07:26 PM 39.7667 -75.3333 153° Southeast 280 322 7,300  Level Philadelphia TRACON
Thu 10:08:00 PM 39.7960 -74.6874 37° Northeast  Level FlightAware Approximate
Thu 10:08:26 PM 39.7833 -75.2167 79° East 308 354 10,500  Level Philadelphia TRACON
Thu 10:09:00 PM 39.8836 -74.5998 37° Northeast  Level FlightAware Approximate
Thu 10:09:26 PM 39.7833 -75.1000 90° East 374 430 12,000  Level Philadelphia TRACON
Thu 10:10:00 PM 39.9747 -74.5253 37° Northeast  Level FlightAware Approximate
Thu 10:11:41 PM 39.7878 -74.8178 89° East 366 421 12,000  Level New York Center
Thu 10:12:41 PM 39.8417 -74.7019 59° Northeast 361 415 14,000 2,430 Climbing New York Center
Thu 10:13:42 PM 39.9197 -74.6142 41° Northeast 348 400 16,900 2,350 Climbing New York Center
Thu 10:14:41 PM 40.0019 -74.5211 41° Northeast 363 418 18,700 2,033 Climbing New York Center
Thu 10:15:43 PM 40.0903 -74.4228 40° Northeast 386 444 21,000 2,400 Climbing New York Center
Thu 10:16:41 PM 40.1936 -74.3222 37° Northeast 405 466 23,500 2,186 Climbing New York Center
Thu 10:17:41 PM 40.3011 -74.2817 16° North 405 466 25,300 1,636 Climbing New York Center
Thu 10:18:42 PM 40.4142 -74.2575 North 399 459 26,800 1,366 Climbing New York Center
Thu 10:21:03 PM 40.6778 -74.2053 North 411 473 29,900 1,433 Climbing Boston Center
Thu 10:22:03 PM 40.8050 -74.1867 North 411 473 31,600 1,400 Climbing Boston Center
Thu 10:23:03 PM 40.9200 -74.1650 North 416 479 32,700 700 Climbing Boston Center
Thu 10:24:03 PM 41.0392 -74.1408 North 422 486 33,000 136 Climbing Boston Center
Thu 10:25:15 PM 41.1500 -74.1189 North 422 486 33,000  Level Boston Center
Thu 10:26:15 PM 41.2775 -74.0944 North 422 486 33,000  Level Boston Center
Thu 10:27:15 PM 41.3928 -74.0506 16° North 422 486 33,000  Level Boston Center
Thu 10:28:15 PM 41.5006 -73.9342 39° Northeast 422 486 33,000  Level Boston Center
Thu 10:29:27 PM 41.5917 -73.8169 44° Northeast 439 505 33,000  Level Boston Center
Thu 10:30:27 PM 41.7017 -73.6831 42° Northeast 449 517 33,000  Level Boston Center
Thu 10:31:27 PM 41.7944 -73.5678 43° Northeast 442 509 33,000  Level Boston Center
Thu 10:32:27 PM 41.8875 -73.4494 43° Northeast 447 514 33,000  Level Boston Center
Thu 10:33:27 PM 41.9781 -73.3364 43° Northeast 447 514 33,000 -800 Level Boston Center
Thu 10:34:27 PM 42.0725 -73.2175 43° Northeast 447 514 31,400 -1,600 Descending Boston Center
Thu 10:35:27 PM 42.1631 -73.1039 43° Northeast 447 514 29,800 -1,550 Descending Boston Center
Thu 10:36:27 PM 42.2489 -72.9925 44° Northeast 442 509 28,300 -1,500 Descending Boston Center
Thu 10:37:27 PM 42.3369 -72.8811 43° Northeast 432 497 26,800 -1,800 Descending Boston Center
Thu 10:38:27 PM 42.4167 -72.7608 48° Northeast 432 497 24,700 -2,250 Descending Boston Center
Thu 10:39:27 PM 42.4814 -72.6372 55° Northeast 415 478 22,300 -2,350 Descending Boston Center
Thu 10:40:27 PM 42.5400 -72.5106 58° Northeast 398 458 20,000 -2,150 Descending Boston Center
Thu 10:41:27 PM 42.5922 -72.4092 55° Northeast 380 437 18,000 -2,100 Descending Boston Center
Thu 10:42:27 PM 42.6461 -72.2961 57° Northeast 362 417 15,800 -2,250 Descending Boston Center
Thu 10:43:27 PM 42.7022 -72.1717 58° Northeast 356 410 13,500 -2,050 Descending Boston Center
Thu 10:44:27 PM 42.7458 -72.0753 58° Northeast 339 390 11,700 -1,750 Descending Boston Center
Thu 10:45:27 PM 42.7975 -71.9733 55° Northeast 306 352 10,000 -1,400 Descending Boston Center
Thu 10:46:27 PM 42.8181 -71.8853 72° East 274 315 8,900 -1,650 Descending Boston Center
Thu 10:47:27 PM 42.7986 -71.7750 103° East 255 293 6,700 -1,500 Descending Boston Center
Thu 10:48:27 PM 42.7833 -71.6875 103° East 261 300 5,900 -1,000 Descending Boston Center
Thu 10:49:27 PM 42.7683 -71.6000 103° East 227 261 4,700 -1,300 Descending Boston Center
Thu 10:50:27 PM 42.8056 -71.5856 16° North 102 117 3,300 -1,400 Descending Boston Center

Login

Don't have an account? Register now (free) for customized features, flight alerts, and more!